Westrac — WTH4325 — position and weather

sailwx.info

Track history (hours):
 
Tides and Currents Weather Stations Pressure Air Temp Water Temp Dewpoint Dewpoint Depression Visibility Wind Speed Wind Dir Waves Ship Positions

Westrac

Owner: WESTERN TOWBOAT CO, SEATTLE, WA. More information available from US FCC via Universal Licensing System and Coast Guard Vessel Documentation Center.

Last reported at 2018-May-26 07:26 UTC. Time now 2018-May-26 07:47 UTC.
Position N 47°34' W 122°21'.

Length 23 m; draft 5 m.

Type: Tug. MMSI: 366993010.

Date/timePositionNaut miles runAvg speedWind from/ knotsBaromVisibWave heightAir tempDewpointWater temp
2018-May-26 07:26N 47°34' W 122°21'0 0.0
2018-May-26 07:01N 47°34' W 122°21'0 0.0
2018-May-26 06:30N 47°34' W 122°21'0 0.0
2018-May-26 05:30N 47°34' W 122°21'0 0.0
2018-May-26 05:01N 47°34' W 122°21'0 0.0
2018-May-26 04:28N 47°34' W 122°21'0 0.0
2018-May-26 04:01N 47°34' W 122°21'0 0.0
2018-May-26 03:29N 47°34' W 122°21'2 3.8
2018-May-26 03:00N 47°36' W 122°22'0 0.5
2018-May-26 02:30N 47°36' W 122°23'0 1.0
2018-May-26 02:00N 47°35' W 122°22'0 0.4
2018-May-26 01:30N 47°35' W 122°22'1 1.2
2018-May-26 01:00N 47°35' W 122°22'2 3.7
2018-May-26 00:31N 47°33' W 122°21'0 0.0
2018-May-26 00:00N 47°33' W 122°21'1 1.1
2018-May-25 23:30N 47°33' W 122°20'1 1.5
2018-May-25 23:00N 47°33' W 122°21'2 3.4
2018-May-25 22:30N 47°35' W 122°22'0 0.5
2018-May-25 22:00N 47°35' W 122°22'2 4.0
2018-May-25 21:30N 47°33' W 122°20'0 0.0
2018-May-25 21:01N 47°33' W 122°20'3 6.2
2018-May-25 20:30N 47°36' W 122°22'1 1.1
2018-May-25 20:01N 47°35' W 122°22'2 4.1
2018-May-25 19:30N 47°35' W 122°25'3 6.9
2018-May-25 19:01N 47°31' W 122°25'4 7.2
2018-May-25 18:31N 47°28' W 122°24'4 7.4
2018-May-25 18:01N 47°25' W 122°22'3 6.7
2018-May-25 17:30N 47°21' W 122°23'4 7.7
2018-May-25 17:00N 47°19' W 122°27'2 3.6
2018-May-25 16:23N 47°17' W 122°25'1 3.4
2018-May-25 16:00N 47°17' W 122°26'4 8.8
2018-May-25 15:31N 47°22' W 122°25'5 9.5
2018-May-25 15:01N 47°26' W 122°23'511.0
2018-May-25 14:31N 47°32' W 122°25'4 8.5
2018-May-25 14:00N 47°36' W 122°23'2 4.1
2018-May-25 13:29N 47°34' W 122°21'0 0.0
2018-May-24 23:52N 47°34' W 122°21'1 4.1
2018-May-24 23:30N 47°35' W 122°22'2 4.2
2018-May-24 22:59N 47°33' W 122°21'0 0.9
2018-May-24 22:30N 47°33' W 122°20'2 3.1
2018-May-24 22:01N 47°34' W 122°21'1 2.8
2018-May-24 21:31N 47°36' W 122°22'1 2.2
2018-May-24 21:00N 47°35' W 122°22'1 2.9
2018-May-24 20:30N 47°33' W 122°21'0 0.1
2018-May-24 20:00N 47°33' W 122°21'1 1.2
2018-May-24 19:30N 47°33' W 122°20'0 0.0
2018-May-24 19:00N 47°33' W 122°20'0 0.0
2018-May-24 18:30N 47°33' W 122°20'0 0.0
2018-May-24 18:01N 47°33' W 122°20'1 2.9
2018-May-24 17:30N 47°34' W 122°21'1 2.7
2018-May-24 17:00N 47°35' W 122°20'2 3.3
2018-May-24 16:30N 47°34' W 122°21'0 0.9
2018-May-24 16:01N 47°33' W 122°21'2 3.9
2018-May-24 15:30N 47°35' W 122°22'3 5.2
2018-May-24 15:00N 47°33' W 122°20'3 5.4
2018-May-24 14:31N 47°35' W 122°22'1 2.6
2018-May-24 14:00N 47°34' W 122°21'0 0.0
2018-May-24 04:32N 47°34' W 122°21'0 0.6
2018-May-24 04:30N 47°34' W 122°21'1 1.6
2018-May-24 04:00N 47°33' W 122°21'2 4.1
2018-May-24 03:30N 47°35' W 122°22'0 1.0
2018-May-24 03:00N 47°36' W 122°22'0 0.2
2018-May-24 02:30N 47°36' W 122°22'0 0.2
2018-May-24 02:00N 47°36' W 122°22'2 4.3
2018-May-24 01:30N 47°34' W 122°21'1 2.0
2018-May-24 01:00N 47°33' W 122°20'0 0.0
2018-May-24 00:30N 47°33' W 122°20'0 0.0
2018-May-24 00:00N 47°33' W 122°20'0 0.0
2018-May-23 23:30N 47°33' W 122°20'0 0.0
2018-May-23 23:00N 47°33' W 122°20'0 0.3
2018-May-23 22:30N 47°33' W 122°20'0 0.0
2018-May-23 22:00N 47°33' W 122°20'0 1.0
2018-May-23 21:30N 47°33' W 122°21'2 3.5
2018-May-23 21:00N 47°35' W 122°22'0 0.9
2018-May-23 20:31N 47°35' W 122°21'0 0.6
2018-May-23 20:00N 47°35' W 122°22'3 6.3
2018-May-23 19:30N 47°32' W 122°20'1 1.7
2018-May-23 19:01N 47°33' W 122°20'1 1.8
2018-May-23 18:30N 47°34' W 122°21'1 2.5
2018-May-23 18:00N 47°35' W 122°21'0 0.4
2018-May-23 17:30N 47°35' W 122°21'0 0.1
2018-May-23 17:00N 47°35' W 122°21'1 2.7
2018-May-23 16:30N 47°34' W 122°21'0 0.1
2018-May-23 15:59N 47°34' W 122°21'0 0.0
2018-May-23 15:30N 47°34' W 122°21'0 0.0
2018-May-23 15:00N 47°34' W 122°21'0 0.0
2018-May-23 14:30N 47°34' W 122°21'0 0.0
2018-May-23 14:00N 47°34' W 122°21'0 0.0
2018-May-23 13:28N 47°34' W 122°21'0 0.0
2018-May-23 13:00N 47°34' W 122°21'0 0.0
2018-May-23 12:30N 47°34' W 122°21'1 2.8
2018-May-23 12:00N 47°33' W 122°20'1 2.6
2018-May-23 11:30N 47°34' W 122°21'2 3.6
2018-May-23 11:00N 47°36' W 122°22'2 3.3
2018-May-23 10:31N 47°34' W 122°21'1 1.9
2018-May-23 10:00N 47°33' W 122°21'1 1.3
2018-May-23 09:30N 47°33' W 122°20'1 2.7
2018-May-23 09:00N 47°34' W 122°21'0 0.3
2018-May-23 08:30N 47°34' W 122°21'0 0.0
2018-May-23 07:58N 47°34' W 122°21'0 0.0
2018-May-23 07:30N 47°34' W 122°21'0 0.0
2018-May-23 07:01N 47°34' W 122°21'0 0.0
2018-May-23 06:30N 47°34' W 122°21'0 0.0
2018-May-23 06:00N 47°34' W 122°21'0 0.0
2018-May-23 05:30N 47°34' W 122°21'0 0.0
2018-May-23 05:00N 47°34' W 122°21'0 0.0
2018-May-23 04:30N 47°34' W 122°21'0 0.0
2018-May-23 04:00N 47°34' W 122°21'0 0.0
2018-May-23 03:30N 47°34' W 122°21'0 0.0
2018-May-23 03:00N 47°34' W 122°21'0 0.0
2018-May-23 02:30N 47°34' W 122°21'0 0.0
2018-May-23 01:59N 47°34' W 122°21'0 0.0
2018-May-23 01:30N 47°34' W 122°21'0 0.0
2018-May-23 01:00N 47°34' W 122°21'0 0.0
2018-May-23 00:30N 47°34' W 122°21'0 0.0
2018-May-23 00:00N 47°34' W 122°21'0 0.0
2018-May-22 23:31N 47°34' W 122°21'0 0.0
2018-May-22 23:00N 47°34' W 122°21'0 0.0
2018-May-22 22:29N 47°34' W 122°21'0 0.0
2018-May-22 22:01N 47°34' W 122°21'0 0.0
2018-May-22 21:30N 47°34' W 122°21'0 0.0
2018-May-22 20:59N 47°34' W 122°21'0 0.0
2018-May-22 20:30N 47°34' W 122°21'0 0.0
2018-May-22 20:00N 47°34' W 122°21'0 0.0
2018-May-22 19:30N 47°34' W 122°21'0 0.0
2018-May-22 19:00N 47°34' W 122°21'0 0.0
2018-May-22 18:26N 47°34' W 122°21'0 0.0
2018-May-22 18:00N 47°34' W 122°21'1 2.6
2018-May-22 17:28N 47°33' W 122°20'2 4.8
2018-May-22 17:01N 47°35' W 122°22'1 2.2
2018-May-22 16:30N 47°34' W 122°21'0 0.1
2018-May-22 16:00N 47°34' W 122°21'2 3.7
2018-May-22 15:30N 47°35' W 122°22'1 1.5
2018-May-22 15:00N 47°35' W 122°22'2 4.1
2018-May-22 14:30N 47°33' W 122°20'1 2.7
2018-May-22 14:00N 47°34' W 122°21'2 3.7
2018-May-22 13:30N 47°36' W 122°22'2 3.7
2018-May-22 13:00N 47°34' W 122°21'0 0.0
2018-May-22 12:30N 47°34' W 122°21'0 0.0
2018-May-22 12:00N 47°34' W 122°21'0 0.0
2018-May-22 11:30N 47°34' W 122°21'0 0.0
2018-May-22 11:00N 47°34' W 122°21'0 0.0
2018-May-22 10:30N 47°34' W 122°21'0 0.0
2018-May-22 10:00N 47°34' W 122°21'0 0.0
2018-May-22 09:30N 47°34' W 122°21'0 0.0
2018-May-22 09:00N 47°34' W 122°21'1 2.0
2018-May-22 08:30N 47°35' W 122°22'1 1.3
2018-May-22 08:00N 47°34' W 122°21'0 0.8
2018-May-22 07:30N 47°34' W 122°21'0 0.0
2018-May-22 06:59N 47°34' W 122°21'0 0.0
2018-May-22 06:30N 47°34' W 122°21'0 0.0
2018-May-22 06:00N 47°34' W 122°21'0 0.0
2018-May-22 05:30N 47°34' W 122°21'0 0.0
2018-May-22 05:01N 47°34' W 122°21'0 0.0
2018-May-22 04:31N 47°34' W 122°21'2 4.3
2018-May-22 04:00N 47°36' W 122°22'2 3.2
2018-May-22 03:30N 47°38' W 122°23'0 0.7
2018-May-22 03:00N 47°37' W 122°23'3 5.6
2018-May-22 02:30N 47°35' W 122°22'1 2.8
2018-May-22 02:01N 47°33' W 122°21'1 1.8
2018-May-22 01:30N 47°34' W 122°21'1 2.5
2018-May-22 00:59N 47°35' W 122°21'1 2.7
2018-May-22 00:30N 47°34' W 122°21'0 0.0
2018-May-22 00:00N 47°34' W 122°21'0 0.0
2018-May-21 23:30N 47°34' W 122°21'0 0.0
2018-May-21 23:00N 47°34' W 122°21'0 0.4
2018-May-21 22:31N 47°34' W 122°21'2 3.7
2018-May-21 22:00N 47°36' W 122°22'1 1.4
2018-May-21 21:30N 47°35' W 122°22'1 2.6
2018-May-21 21:00N 47°34' W 122°21'1 1.8
2018-May-21 20:30N 47°33' W 122°20'3 5.7
2018-May-21 20:00N 47°36' W 122°22'0 0.6
2018-May-21 19:30N 47°36' W 122°22'1 1.8
2018-May-21 19:00N 47°35' W 122°22'1 1.7
2018-May-21 18:30N 47°35' W 122°22'2 0.1
2018-May-20 18:06N 47°34' W 122°21'1 6.2
2018-May-20 18:00N 47°34' W 122°21'0 1.0
2018-May-20 17:30N 47°34' W 122°21'2 3.0
2018-May-20 17:00N 47°35' W 122°22'3 5.3
2018-May-20 16:30N 47°33' W 122°20'0 0.8
2018-May-20 16:00N 47°33' W 122°21'0 0.2
2018-May-20 15:30N 47°33' W 122°21'2 4.4
2018-May-20 15:00N 47°35' W 122°22'1 2.8
2018-May-20 14:30N 47°34' W 122°21'0 0.7
2018-May-20 14:00N 47°34' W 122°21'1 0.0
2018-May-19 03:33N 47°34' W 122°21'0 7.2
2018-May-19 03:30N 47°34' W 122°21'1 2.5
2018-May-19 03:00N 47°33' W 122°20'0 0.1
2018-May-19 02:30N 47°33' W 122°20'0 0.6
2018-May-19 02:00N 47°33' W 122°20'3 5.7
2018-May-19 01:30N 47°36' W 122°22'1 2.5
2018-May-19 01:00N 47°34' W 122°21'2 3.4
2018-May-19 00:30N 47°33' W 122°20'0 0.2
2018-May-19 00:00N 47°33' W 122°20'0 0.1
2018-May-18 23:29N 47°33' W 122°20'1 0.1
2018-May-18 06:51N 47°34' W 122°21'1 2.6
2018-May-18 06:30N 47°33' W 122°21'0 0.1
2018-May-18 06:00N 47°33' W 122°21'0 0.1
2018-May-18 05:30N 47°33' W 122°21'0 0.0
2018-May-18 05:00N 47°33' W 122°21'0 0.2
2018-May-18 04:30N 47°33' W 122°21'0 0.5
2018-May-18 04:00N 47°33' W 122°20'2 3.7
2018-May-18 03:30N 47°35' W 122°22'0 0.9
2018-May-18 03:00N 47°35' W 122°22'1 2.5
2018-May-18 02:30N 47°34' W 122°21'0 0.0
2018-May-18 02:00N 47°34' W 122°21'0 0.0
2018-May-18 01:30N 47°34' W 122°21'1 1.3
2018-May-18 01:00N 47°33' W 122°21'0 0.9
2018-May-18 00:30N 47°33' W 122°20'1 2.2
2018-May-18 00:00N 47°34' W 122°21'0 0.0
2018-May-17 23:30N 47°34' W 122°21'0 0.0
2018-May-17 23:00N 47°34' W 122°21'0 0.0
2018-May-17 22:30N 47°34' W 122°21'0 0.0
2018-May-17 22:00N 47°34' W 122°21'0 0.0
2018-May-17 21:30N 47°34' W 122°21'0 0.0
2018-May-17 21:00N 47°34' W 122°21'0 0.0
2018-May-17 20:30N 47°34' W 122°21'2 3.1
2018-May-17 20:00N 47°35' W 122°22'2 4.7
2018-May-17 19:30N 47°33' W 122°21'2 4.1
2018-May-17 19:00N 47°35' W 122°21'0 0.2
2018-May-17 18:30N 47°35' W 122°21'0 0.0
2018-May-17 18:00N 47°35' W 122°21'1 1.1
2018-May-17 17:30N 47°36' W 122°22'2 3.2
2018-May-17 17:00N 47°34' W 122°21'0 0.0
2018-May-17 16:30N 47°34' W 122°21'0 0.0
2018-May-17 16:00N 47°34' W 122°21'0 0.0
2018-May-17 15:30N 47°34' W 122°21'0 0.0
2018-May-17 15:00N 47°34' W 122°21'1 2.0
2018-May-17 14:30N 47°33' W 122°20'0 0.3
2018-May-17 14:00N 47°33' W 122°21'0 0.0
2018-May-17 13:30N 47°33' W 122°21'1 0.1
2018-May-17 04:20N 47°34' W 122°21'1 2.3
2018-May-17 04:00N 47°33' W 122°21'0 0.1
2018-May-17 03:30N 47°33' W 122°21'0 0.0
2018-May-17 03:00N 47°33' W 122°21'0 0.0
2018-May-17 02:30N 47°33' W 122°21'0 0.7
2018-May-17 02:00N 47°34' W 122°21'2 4.8
2018-May-17 01:30N 47°36' W 122°23'3 5.8
2018-May-17 01:00N 47°33' W 122°20'1 2.7
2018-May-17 00:30N 47°34' W 122°21'1 2.7
2018-May-17 00:00N 47°33' W 122°20'0 0.0
2018-May-16 23:30N 47°33' W 122°20'1 1.7
2018-May-16 23:00N 47°34' W 122°21'1 1.3
2018-May-16 22:30N 47°34' W 122°21'1 2.5
2018-May-16 22:00N 47°33' W 122°21'0 0.2
2018-May-16 21:28N 47°33' W 122°21'0 0.0
2018-May-16 20:55N 47°33' W 122°21'1 1.9
2018-May-16 20:30N 47°34' W 122°21'0 0.0
2018-May-16 19:59N 47°34' W 122°21'0 0.0
2018-May-16 19:30N 47°34' W 122°21'0 0.0
2018-May-16 19:00N 47°34' W 122°21'0 0.0
2018-May-16 18:30N 47°34' W 122°21'1 1.1
2018-May-16 18:00N 47°34' W 122°21'1 2.7
2018-May-16 17:29N 47°33' W 122°20'0 0.0
2018-May-16 16:59N 47°33' W 122°20'1 2.5
2018-May-16 16:30N 47°34' W 122°21'1 2.2
2018-May-16 16:00N 47°33' W 122°21'2 4.8
2018-May-16 15:30N 47°35' W 122°22'1 1.1
2018-May-16 15:00N 47°35' W 122°22'1 2.1
2018-May-16 14:30N 47°34' W 122°21'0 0.0
2018-May-16 14:00N 47°34' W 122°21'0 0.0
2018-May-16 13:30N 47°34' W 122°21'  
Track history (hours):
 
Tides and Currents Weather Stations Pressure Air Temp Water Temp Dewpoint Dewpoint Depression Visibility Wind Speed Wind Dir Waves Ship Positions

Westrac

Owner: WESTERN TOWBOAT CO, SEATTLE, WA. More information available from US FCC via Universal Licensing System and Coast Guard Vessel Documentation Center.

Last reported at 2018-May-26 07:26 UTC. Time now 2018-May-26 07:47 UTC.
Position N 47°34' W 122°21'.

Length 23 m; draft 5 m.

Type: Tug. MMSI: 366993010.

Date/timePositionNaut miles runAvg speedWind from/ knotsBaromVisibWave heightAir tempDewpointWater temp
2018-May-26 07:26N 47°34' W 122°21'0 0.0
2018-May-26 07:01N 47°34' W 122°21'0 0.0
2018-May-26 06:30N 47°34' W 122°21'0 0.0
2018-May-26 05:30N 47°34' W 122°21'0 0.0
2018-May-26 05:01N 47°34' W 122°21'0 0.0
2018-May-26 04:28N 47°34' W 122°21'0 0.0
2018-May-26 04:01N 47°34' W 122°21'0 0.0
2018-May-26 03:29N 47°34' W 122°21'2 3.8
2018-May-26 03:00N 47°36' W 122°22'0 0.5
2018-May-26 02:30N 47°36' W 122°23'0 1.0
2018-May-26 02:00N 47°35' W 122°22'0 0.4
2018-May-26 01:30N 47°35' W 122°22'1 1.2
2018-May-26 01:00N 47°35' W 122°22'2 3.7
2018-May-26 00:31N 47°33' W 122°21'0 0.0
2018-May-26 00:00N 47°33' W 122°21'1 1.1
2018-May-25 23:30N 47°33' W 122°20'1 1.5
2018-May-25 23:00N 47°33' W 122°21'2 3.4
2018-May-25 22:30N 47°35' W 122°22'0 0.5
2018-May-25 22:00N 47°35' W 122°22'2 4.0
2018-May-25 21:30N 47°33' W 122°20'0 0.0
2018-May-25 21:01N 47°33' W 122°20'3 6.2
2018-May-25 20:30N 47°36' W 122°22'1 1.1
2018-May-25 20:01N 47°35' W 122°22'2 4.1
2018-May-25 19:30N 47°35' W 122°25'3 6.9
2018-May-25 19:01N 47°31' W 122°25'4 7.2
2018-May-25 18:31N 47°28' W 122°24'4 7.4
2018-May-25 18:01N 47°25' W 122°22'3 6.7
2018-May-25 17:30N 47°21' W 122°23'4 7.7
2018-May-25 17:00N 47°19' W 122°27'2 3.6
2018-May-25 16:23N 47°17' W 122°25'1 3.4
2018-May-25 16:00N 47°17' W 122°26'4 8.8
2018-May-25 15:31N 47°22' W 122°25'5 9.5
2018-May-25 15:01N 47°26' W 122°23'511.0
2018-May-25 14:31N 47°32' W 122°25'4 8.5
2018-May-25 14:00N 47°36' W 122°23'2 4.1
2018-May-25 13:29N 47°34' W 122°21'0 0.0
2018-May-24 23:52N 47°34' W 122°21'1 4.1
2018-May-24 23:30N 47°35' W 122°22'2 4.2
2018-May-24 22:59N 47°33' W 122°21'0 0.9
2018-May-24 22:30N 47°33' W 122°20'2 3.1
2018-May-24 22:01N 47°34' W 122°21'1 2.8
2018-May-24 21:31N 47°36' W 122°22'1 2.2
2018-May-24 21:00N 47°35' W 122°22'1 2.9
2018-May-24 20:30N 47°33' W 122°21'0 0.1
2018-May-24 20:00N 47°33' W 122°21'1 1.2
2018-May-24 19:30N 47°33' W 122°20'0 0.0
2018-May-24 19:00N 47°33' W 122°20'0 0.0
2018-May-24 18:30N 47°33' W 122°20'0 0.0
2018-May-24 18:01N 47°33' W 122°20'1 2.9
2018-May-24 17:30N 47°34' W 122°21'1 2.7
2018-May-24 17:00N 47°35' W 122°20'2 3.3
2018-May-24 16:30N 47°34' W 122°21'0 0.9
2018-May-24 16:01N 47°33' W 122°21'2 3.9
2018-May-24 15:30N 47°35' W 122°22'3 5.2
2018-May-24 15:00N 47°33' W 122°20'3 5.4
2018-May-24 14:31N 47°35' W 122°22'1 2.6
2018-May-24 14:00N 47°34' W 122°21'0 0.0
2018-May-24 04:32N 47°34' W 122°21'0 0.6
2018-May-24 04:30N 47°34' W 122°21'1 1.6
2018-May-24 04:00N 47°33' W 122°21'2 4.1
2018-May-24 03:30N 47°35' W 122°22'0 1.0
2018-May-24 03:00N 47°36' W 122°22'0 0.2
2018-May-24 02:30N 47°36' W 122°22'0 0.2
2018-May-24 02:00N 47°36' W 122°22'2 4.3
2018-May-24 01:30N 47°34' W 122°21'1 2.0
2018-May-24 01:00N 47°33' W 122°20'0 0.0
2018-May-24 00:30N 47°33' W 122°20'0 0.0
2018-May-24 00:00N 47°33' W 122°20'0 0.0
2018-May-23 23:30N 47°33' W 122°20'0 0.0
2018-May-23 23:00N 47°33' W 122°20'0 0.3
2018-May-23 22:30N 47°33' W 122°20'0 0.0
2018-May-23 22:00N 47°33' W 122°20'0 1.0
2018-May-23 21:30N 47°33' W 122°21'2 3.5
2018-May-23 21:00N 47°35' W 122°22'0 0.9
2018-May-23 20:31N 47°35' W 122°21'0 0.6
2018-May-23 20:00N 47°35' W 122°22'3 6.3
2018-May-23 19:30N 47°32' W 122°20'1 1.7
2018-May-23 19:01N 47°33' W 122°20'1 1.8
2018-May-23 18:30N 47°34' W 122°21'1 2.5
2018-May-23 18:00N 47°35' W 122°21'0 0.4
2018-May-23 17:30N 47°35' W 122°21'0 0.1
2018-May-23 17:00N 47°35' W 122°21'1 2.7
2018-May-23 16:30N 47°34' W 122°21'0 0.1
2018-May-23 15:59N 47°34' W 122°21'0 0.0
2018-May-23 15:30N 47°34' W 122°21'0 0.0
2018-May-23 15:00N 47°34' W 122°21'0 0.0
2018-May-23 14:30N 47°34' W 122°21'0 0.0
2018-May-23 14:00N 47°34' W 122°21'0 0.0
2018-May-23 13:28N 47°34' W 122°21'0 0.0
2018-May-23 13:00N 47°34' W 122°21'0 0.0
2018-May-23 12:30N 47°34' W 122°21'1 2.8
2018-May-23 12:00N 47°33' W 122°20'1 2.6
2018-May-23 11:30N 47°34' W 122°21'2 3.6
2018-May-23 11:00N 47°36' W 122°22'2 3.3
2018-May-23 10:31N 47°34' W 122°21'1 1.9
2018-May-23 10:00N 47°33' W 122°21'1 1.3
2018-May-23 09:30N 47°33' W 122°20'1 2.7
2018-May-23 09:00N 47°34' W 122°21'0 0.3
2018-May-23 08:30N 47°34' W 122°21'0 0.0
2018-May-23 07:58N 47°34' W 122°21'0 0.0
2018-May-23 07:30N 47°34' W 122°21'0 0.0
2018-May-23 07:01N 47°34' W 122°21'0 0.0
2018-May-23 06:30N 47°34' W 122°21'0 0.0
2018-May-23 06:00N 47°34' W 122°21'0 0.0
2018-May-23 05:30N 47°34' W 122°21'0 0.0
2018-May-23 05:00N 47°34' W 122°21'0 0.0
2018-May-23 04:30N 47°34' W 122°21'0 0.0
2018-May-23 04:00N 47°34' W 122°21'0 0.0
2018-May-23 03:30N 47°34' W 122°21'0 0.0
2018-May-23 03:00N 47°34' W 122°21'0 0.0
2018-May-23 02:30N 47°34' W 122°21'0 0.0
2018-May-23 01:59N 47°34' W 122°21'0 0.0
2018-May-23 01:30N 47°34' W 122°21'0 0.0
2018-May-23 01:00N 47°34' W 122°21'0 0.0
2018-May-23 00:30N 47°34' W 122°21'0 0.0
2018-May-23 00:00N 47°34' W 122°21'0 0.0
2018-May-22 23:31N 47°34' W 122°21'0 0.0
2018-May-22 23:00N 47°34' W 122°21'0 0.0
2018-May-22 22:29N 47°34' W 122°21'0 0.0
2018-May-22 22:01N 47°34' W 122°21'0 0.0
2018-May-22 21:30N 47°34' W 122°21'0 0.0
2018-May-22 20:59N 47°34' W 122°21'0 0.0
2018-May-22 20:30N 47°34' W 122°21'0 0.0
2018-May-22 20:00N 47°34' W 122°21'0 0.0
2018-May-22 19:30N 47°34' W 122°21'0 0.0
2018-May-22 19:00N 47°34' W 122°21'0 0.0
2018-May-22 18:26N 47°34' W 122°21'0 0.0
2018-May-22 18:00N 47°34' W 122°21'1 2.6
2018-May-22 17:28N 47°33' W 122°20'2 4.8
2018-May-22 17:01N 47°35' W 122°22'1 2.2
2018-May-22 16:30N 47°34' W 122°21'0 0.1
2018-May-22 16:00N 47°34' W 122°21'2 3.7
2018-May-22 15:30N 47°35' W 122°22'1 1.5
2018-May-22 15:00N 47°35' W 122°22'2 4.1
2018-May-22 14:30N 47°33' W 122°20'1 2.7
2018-May-22 14:00N 47°34' W 122°21'2 3.7
2018-May-22 13:30N 47°36' W 122°22'2 3.7
2018-May-22 13:00N 47°34' W 122°21'0 0.0
2018-May-22 12:30N 47°34' W 122°21'0 0.0
2018-May-22 12:00N 47°34' W 122°21'0 0.0
2018-May-22 11:30N 47°34' W 122°21'0 0.0
2018-May-22 11:00N 47°34' W 122°21'0 0.0
2018-May-22 10:30N 47°34' W 122°21'0 0.0
2018-May-22 10:00N 47°34' W 122°21'0 0.0
2018-May-22 09:30N 47°34' W 122°21'0 0.0
2018-May-22 09:00N 47°34' W 122°21'1 2.0
2018-May-22 08:30N 47°35' W 122°22'1 1.3
2018-May-22 08:00N 47°34' W 122°21'0 0.8
2018-May-22 07:30N 47°34' W 122°21'0 0.0
2018-May-22 06:59N 47°34' W 122°21'0 0.0
2018-May-22 06:30N 47°34' W 122°21'0 0.0
2018-May-22 06:00N 47°34' W 122°21'0 0.0
2018-May-22 05:30N 47°34' W 122°21'0 0.0
2018-May-22 05:01N 47°34' W 122°21'0 0.0
2018-May-22 04:31N 47°34' W 122°21'2 4.3
2018-May-22 04:00N 47°36' W 122°22'2 3.2
2018-May-22 03:30N 47°38' W 122°23'0 0.7
2018-May-22 03:00N 47°37' W 122°23'3 5.6
2018-May-22 02:30N 47°35' W 122°22'1 2.8
2018-May-22 02:01N 47°33' W 122°21'1 1.8
2018-May-22 01:30N 47°34' W 122°21'1 2.5
2018-May-22 00:59N 47°35' W 122°21'1 2.7
2018-May-22 00:30N 47°34' W 122°21'0 0.0
2018-May-22 00:00N 47°34' W 122°21'0 0.0
2018-May-21 23:30N 47°34' W 122°21'0 0.0
2018-May-21 23:00N 47°34' W 122°21'0 0.4
2018-May-21 22:31N 47°34' W 122°21'2 3.7
2018-May-21 22:00N 47°36' W 122°22'1 1.4
2018-May-21 21:30N 47°35' W 122°22'1 2.6
2018-May-21 21:00N 47°34' W 122°21'1 1.8
2018-May-21 20:30N 47°33' W 122°20'3 5.7
2018-May-21 20:00N 47°36' W 122°22'0 0.6
2018-May-21 19:30N 47°36' W 122°22'1 1.8
2018-May-21 19:00N 47°35' W 122°22'1 1.7
2018-May-21 18:30N 47°35' W 122°22'2 0.1
2018-May-20 18:06N 47°34' W 122°21'1 6.2
2018-May-20 18:00N 47°34' W 122°21'0 1.0
2018-May-20 17:30N 47°34' W 122°21'2 3.0
2018-May-20 17:00N 47°35' W 122°22'3 5.3
2018-May-20 16:30N 47°33' W 122°20'0 0.8
2018-May-20 16:00N 47°33' W 122°21'0 0.2
2018-May-20 15:30N 47°33' W 122°21'2 4.4
2018-May-20 15:00N 47°35' W 122°22'1 2.8
2018-May-20 14:30N 47°34' W 122°21'0 0.7
2018-May-20 14:00N 47°34' W 122°21'1 0.0
2018-May-19 03:33N 47°34' W 122°21'0 7.2
2018-May-19 03:30N 47°34' W 122°21'1 2.5
2018-May-19 03:00N 47°33' W 122°20'0 0.1
2018-May-19 02:30N 47°33' W 122°20'0 0.6
2018-May-19 02:00N 47°33' W 122°20'3 5.7
2018-May-19 01:30N 47°36' W 122°22'1 2.5
2018-May-19 01:00N 47°34' W 122°21'2 3.4
2018-May-19 00:30N 47°33' W 122°20'0 0.2
2018-May-19 00:00N 47°33' W 122°20'0 0.1
2018-May-18 23:29N 47°33' W 122°20'1 0.1
2018-May-18 06:51N 47°34' W 122°21'1 2.6
2018-May-18 06:30N 47°33' W 122°21'0 0.1
2018-May-18 06:00N 47°33' W 122°21'0 0.1
2018-May-18 05:30N 47°33' W 122°21'0 0.0
2018-May-18 05:00N 47°33' W 122°21'0 0.2
2018-May-18 04:30N 47°33' W 122°21'0 0.5
2018-May-18 04:00N 47°33' W 122°20'2 3.7
2018-May-18 03:30N 47°35' W 122°22'0 0.9
2018-May-18 03:00N 47°35' W 122°22'1 2.5
2018-May-18 02:30N 47°34' W 122°21'0 0.0
2018-May-18 02:00N 47°34' W 122°21'0 0.0
2018-May-18 01:30N 47°34' W 122°21'1 1.3
2018-May-18 01:00N 47°33' W 122°21'0 0.9
2018-May-18 00:30N 47°33' W 122°20'1 2.2
2018-May-18 00:00N 47°34' W 122°21'0 0.0
2018-May-17 23:30N 47°34' W 122°21'0 0.0
2018-May-17 23:00N 47°34' W 122°21'0 0.0
2018-May-17 22:30N 47°34' W 122°21'0 0.0
2018-May-17 22:00N 47°34' W 122°21'0 0.0
2018-May-17 21:30N 47°34' W 122°21'0 0.0
2018-May-17 21:00N 47°34' W 122°21'0 0.0
2018-May-17 20:30N 47°34' W 122°21'2 3.1
2018-May-17 20:00N 47°35' W 122°22'2 4.7
2018-May-17 19:30N 47°33' W 122°21'2 4.1
2018-May-17 19:00N 47°35' W 122°21'0 0.2
2018-May-17 18:30N 47°35' W 122°21'0 0.0
2018-May-17 18:00N 47°35' W 122°21'1 1.1
2018-May-17 17:30N 47°36' W 122°22'2 3.2
2018-May-17 17:00N 47°34' W 122°21'0 0.0
2018-May-17 16:30N 47°34' W 122°21'0 0.0
2018-May-17 16:00N 47°34' W 122°21'0 0.0
2018-May-17 15:30N 47°34' W 122°21'0 0.0
2018-May-17 15:00N 47°34' W 122°21'1 2.0
2018-May-17 14:30N 47°33' W 122°20'0 0.3
2018-May-17 14:00N 47°33' W 122°21'0 0.0
2018-May-17 13:30N 47°33' W 122°21'1 0.1
2018-May-17 04:20N 47°34' W 122°21'1 2.3
2018-May-17 04:00N 47°33' W 122°21'0 0.1
2018-May-17 03:30N 47°33' W 122°21'0 0.0
2018-May-17 03:00N 47°33' W 122°21'0 0.0
2018-May-17 02:30N 47°33' W 122°21'0 0.7
2018-May-17 02:00N 47°34' W 122°21'2 4.8
2018-May-17 01:30N 47°36' W 122°23'3 5.8
2018-May-17 01:00N 47°33' W 122°20'1 2.7
2018-May-17 00:30N 47°34' W 122°21'1 2.7
2018-May-17 00:00N 47°33' W 122°20'0 0.0
2018-May-16 23:30N 47°33' W 122°20'1 1.7
2018-May-16 23:00N 47°34' W 122°21'1 1.3
2018-May-16 22:30N 47°34' W 122°21'1 2.5
2018-May-16 22:00N 47°33' W 122°21'0 0.2
2018-May-16 21:28N 47°33' W 122°21'0 0.0
2018-May-16 20:55N 47°33' W 122°21'1 1.9
2018-May-16 20:30N 47°34' W 122°21'0 0.0
2018-May-16 19:59N 47°34' W 122°21'0 0.0
2018-May-16 19:30N 47°34' W 122°21'0 0.0
2018-May-16 19:00N 47°34' W 122°21'0 0.0
2018-May-16 18:30N 47°34' W 122°21'1 1.1
2018-May-16 18:00N 47°34' W 122°21'1 2.7
2018-May-16 17:29N 47°33' W 122°20'0 0.0
2018-May-16 16:59N 47°33' W 122°20'1 2.5
2018-May-16 16:30N 47°34' W 122°21'1 2.2
2018-May-16 16:00N 47°33' W 122°21'2 4.8
2018-May-16 15:30N 47°35' W 122°22'1 1.1
2018-May-16 15:00N 47°35' W 122°22'1 2.1
2018-May-16 14:30N 47°34' W 122°21'0 0.0
2018-May-16 14:00N 47°34' W 122°21'0 0.0
2018-May-16 13:30N 47°34' W 122°21'  

Dump ship's entire track history